Time;durP1;ratioP1;P1;durP2;ratioP2;P2;SDS_P1;SDS_P2;PMS_P1;PMS_P2;Temp;Humidity;BMP_temperature;BMP_pressure;BME280_temperature;BME280_humidity;BME280_pressure;Samples;Min_cycle;Max_cycle;Signal;HPM_P1;HPM_P2
2021/09/21 00:01:04;;;;;;;4.68;3.00;;;11.90;79.30;;;;;;5062707;28;20074;-79
2021/09/21 00:03:30;;;;;;;5.35;3.08;;;11.90;77.80;;;;;;5056077;28;20028;-80
2021/09/21 00:05:55;;;;;;;7.28;3.42;;;11.90;76.50;;;;;;5052231;28;20037;-79
2021/09/21 00:08:27;;;;;;;6.38;3.42;;;11.80;77.00;;;;;;5051777;28;20036;-79
2021/09/21 00:10:56;;;;;;;4.43;1.98;;;11.80;77.80;;;;;;5052337;28;20111;-80
2021/09/21 00:13:23;;;;;;;5.40;2.60;;;11.80;79.10;;;;;;5054315;28;20477;-78
2021/09/21 00:15:49;;;;;;;5.00;2.60;;;11.80;80.00;;;;;;5060491;28;20039;-78
2021/09/21 00:18:14;;;;;;;9.25;4.50;;;11.70;79.40;;;;;;5059950;28;20155;-77
2021/09/21 00:20:40;;;;;;;5.30;2.45;;;11.70;80.30;;;;;;5052397;28;20026;-79
2021/09/21 00:23:06;;;;;;;10.13;4.70;;;11.60;81.70;;;;;;5052568;28;20025;-79
2021/09/21 00:25:31;;;;;;;4.60;2.05;;;11.50;81.10;;;;;;5052243;28;20028;-79
2021/09/21 00:27:57;;;;;;;5.35;2.60;;;11.50;82.60;;;;;;5052587;28;20437;-79
2021/09/21 00:30:23;;;;;;;8.27;4.72;;;11.50;82.00;;;;;;5052680;28;20044;-80
2021/09/21 00:33:00;;;;;;;6.53;4.28;;;11.50;82.20;;;;;;5052618;28;20032;-80
2021/09/21 00:35:26;;;;;;;6.50;3.70;;;11.40;80.40;;;;;;5054292;28;20179;-80
2021/09/21 00:37:52;;;;;;;6.63;3.70;;;11.40;81.30;;;;;;5060962;28;20032;-81
2021/09/21 00:40:17;;;;;;;7.13;4.50;;;11.40;80.10;;;;;;5055585;28;20452;-80
2021/09/21 00:42:45;;;;;;;12.20;4.63;;;11.40;79.60;;;;;;5052772;28;20108;-80
2021/09/21 00:45:20;;;;;;;7.15;4.57;;;11.30;80.20;;;;;;5052327;28;20124;-79
2021/09/21 00:47:46;;;;;;;7.70;4.32;;;11.30;82.20;;;;;;5052790;28;20025;-80
2021/09/21 00:50:12;;;;;;;6.65;3.88;;;11.30;81.20;;;;;;5052963;28;20381;-80
2021/09/21 00:52:38;;;;;;;4.85;2.90;;;11.30;81.20;;;;;;5064991;28;20049;-78
2021/09/21 00:55:04;;;;;;;7.97;4.47;;;11.30;82.80;;;;;;5053806;28;20029;-78
2021/09/21 00:57:31;;;;;;;5.63;3.47;;;11.30;84.00;;;;;;5051862;28;20070;-78
2021/09/21 00:59:58;;;;;;;6.03;3.53;;;11.30;82.00;;;;;;5052304;28;20465;-80
2021/09/21 01:02:23;;;;;;;5.40;3.30;;;11.30;80.70;;;;;;5053948;28;20422;-79
2021/09/21 01:04:49;;;;;;;9.80;5.18;;;11.30;81.90;;;;;;5052746;28;20028;-78
2021/09/21 01:07:15;;;;;;;8.38;4.47;;;11.20;80.90;;;;;;5053447;28;20080;-79
2021/09/21 01:09:42;;;;;;;7.32;5.28;;;11.20;80.70;;;;;;5051562;28;20469;-79
2021/09/21 01:12:08;;;;;;;7.88;5.00;;;11.20;81.10;;;;;;5054122;28;20036;-78
2021/09/21 01:14:34;;;;;;;7.28;3.67;;;11.20;81.70;;;;;;5056731;28;20025;-79
2021/09/21 01:16:59;;;;;;;10.15;5.43;;;11.20;81.80;;;;;;5055258;28;20508;-79
2021/09/21 01:19:27;;;;;;;8.43;4.82;;;11.10;82.00;;;;;;5052751;28;20031;-80
2021/09/21 01:21:53;;;;;;;5.88;3.40;;;11.20;82.00;;;;;;5054861;28;20021;-78
2021/09/21 01:24:20;;;;;;;9.75;5.75;;;11.20;84.30;;;;;;5055250;28;20021;-78
2021/09/21 01:26:47;;;;;;;11.15;4.53;;;11.10;82.70;;;;;;5055018;28;20021;-79
2021/09/21 01:29:15;;;;;;;10.07;5.60;;;11.10;82.90;;;;;;5061742;28;20481;-80
2021/09/21 01:31:42;;;;;;;6.28;3.38;;;11.10;84.10;;;;;;5058795;28;20029;-79
2021/09/21 01:34:08;;;;;;;7.68;3.75;;;11.10;84.00;;;;;;5055876;28;20025;-78
2021/09/21 01:36:34;;;;;;;9.10;6.03;;;11.10;83.50;;;;;;5055813;28;20029;-80
2021/09/21 01:39:00;;;;;;;8.45;4.50;;;11.10;83.50;;;;;;5056651;28;20035;-78
2021/09/21 01:41:25;;;;;;;9.18;4.47;;;11.10;82.80;;;;;;5055527;28;20032;-79
2021/09/21 01:43:52;;;;;;;7.88;4.65;;;11.00;82.60;;;;;;5055591;28;20519;-80
2021/09/21 01:46:23;;;;;;;11.30;5.50;;;11.10;82.20;;;;;;5071882;28;20025;-79
2021/09/21 01:48:49;;;;;;;9.05;5.53;;;11.00;81.40;;;;;;5057016;28;20068;-79
2021/09/21 01:51:33;;;;;;;9.73;5.55;;;11.00;81.70;;;;;;5054566;28;20025;-79
2021/09/21 01:54:24;;;;;;;7.85;5.25;;;10.90;80.90;;;;;;5054859;28;20025;-80
2021/09/21 01:59:35;;;;;;;10.85;5.28;;;10.90;81.20;;;;;;5056024;28;20090;-79
2021/09/21 02:02:00;;;;;;;8.70;5.05;;;10.80;81.00;;;;;;5055115;28;20024;-78
2021/09/21 02:04:26;;;;;;;11.85;6.13;;;10.80;81.10;;;;;;5055282;28;20043;-79
2021/09/21 02:06:56;;;;;;;10.60;6.00;;;10.80;81.20;;;;;;5066697;28;20025;-79
2021/09/21 02:09:22;;;;;;;9.73;4.93;;;10.80;81.30;;;;;;5056283;28;20064;-79
2021/09/21 02:11:48;;;;;;;10.75;5.30;;;10.70;81.20;;;;;;5054262;28;20098;-79
2021/09/21 02:14:14;;;;;;;11.45;5.75;;;10.70;81.30;;;;;;5055981;28;20462;-79
2021/09/21 02:16:42;;;;;;;8.27;5.55;;;10.70;81.50;;;;;;5054478;28;20028;-78
2021/09/21 02:19:09;;;;;;;9.45;5.38;;;10.70;81.70;;;;;;5065843;28;20032;-80
2021/09/21 02:21:35;;;;;;;8.50;5.50;;;10.70;81.80;;;;;;5057230;28;20036;-79
2021/09/21 02:24:01;;;;;;;8.18;5.00;;;10.70;81.90;;;;;;5054368;28;20025;-79
2021/09/21 02:26:27;;;;;;;8.90;5.60;;;10.70;82.10;;;;;;5055087;28;20017;-79
2021/09/21 02:28:53;;;;;;;9.15;5.88;;;10.70;82.00;;;;;;5054503;28;20075;-80
2021/09/21 02:31:19;;;;;;;9.77;5.32;;;10.70;82.10;;;;;;5054785;28;20027;-79
2021/09/21 02:33:46;;;;;;;10.00;5.22;;;10.70;82.40;;;;;;5053686;28;20463;-80
2021/09/21 02:36:13;;;;;;;10.15;5.57;;;10.70;82.40;;;;;;5055038;28;20147;-79
2021/09/21 02:38:39;;;;;;;8.98;4.68;;;10.60;82.50;;;;;;5054943;28;20032;-80
2021/09/21 02:41:07;;;;;;;9.23;5.63;;;10.70;82.70;;;;;;5054929;28;20480;-80
2021/09/21 02:43:34;;;;;;;9.35;4.93;;;10.70;82.70;;;;;;5064405;28;20047;-78
2021/09/21 02:46:01;;;;;;;7.40;4.57;;;10.60;82.60;;;;;;5055992;28;20017;-79
2021/09/21 02:48:31;;;;;;;7.15;4.85;;;10.60;82.80;;;;;;5054523;28;20120;-80
2021/09/21 02:50:59;;;;;;;9.88;5.38;;;10.60;82.70;;;;;;5054186;28;20471;-79
2021/09/21 02:53:24;;;;;;;12.20;5.68;;;10.70;82.80;;;;;;5054152;28;20070;-80
2021/09/21 02:55:50;;;;;;;8.32;5.40;;;10.80;82.90;;;;;;5055057;28;20013;-79
2021/09/21 02:58:16;;;;;;;12.07;6.05;;;10.70;82.80;;;;;;5054803;28;20380;-79
2021/09/21 03:00:43;;;;;;;8.25;5.05;;;10.80;82.80;;;;;;5055893;28;20028;-79
2021/09/21 03:03:09;;;;;;;10.52;5.90;;;10.80;82.80;;;;;;5054383;28;20091;-80
2021/09/21 03:05:43;;;;;;;9.10;5.28;;;10.80;83.00;;;;;;5058271;28;20021;-78
2021/09/21 03:08:14;;;;;;;11.50;5.10;;;10.80;83.10;;;;;;5058807;28;20083;-80
2021/09/21 03:18:38;;;;;;;9.45;5.55;;;10.70;83.30;;;;;;5055270;28;20043;-79
2021/09/21 03:21:04;;;;;;;10.85;5.45;;;10.70;83.20;;;;;;5066000;28;20036;-79
2021/09/21 03:23:30;;;;;;;8.48;6.00;;;10.60;83.20;;;;;;5054066;28;20028;-79
2021/09/21 03:25:55;;;;;;;9.82;5.68;;;10.60;83.30;;;;;;5053063;28;20062;-80
2021/09/21 03:28:21;;;;;;;8.73;5.82;;;10.60;83.20;;;;;;5054640;28;20108;-79
2021/09/21 03:30:47;;;;;;;9.82;5.72;;;10.60;83.20;;;;;;5054064;28;20045;-80
2021/09/21 03:33:13;;;;;;;9.32;4.75;;;10.60;83.20;;;;;;5053843;28;20427;-80
2021/09/21 03:35:38;;;;;;;9.73;6.90;;;10.50;83.30;;;;;;5054567;28;20021;-80
2021/09/21 03:38:04;;;;;;;10.02;5.90;;;10.50;83.20;;;;;;5053676;28;20032;-80
2021/09/21 03:40:31;;;;;;;9.70;6.20;;;10.60;83.40;;;;;;5053794;28;20163;-80
2021/09/21 03:42:57;;;;;;;9.70;6.15;;;10.50;83.30;;;;;;5053283;28;20473;-79
2021/09/21 03:45:24;;;;;;;9.60;6.57;;;10.50;83.40;;;;;;5053508;28;20028;-80
2021/09/21 03:47:50;;;;;;;17.90;7.88;;;10.50;83.50;;;;;;5059455;28;20013;-80
2021/09/21 03:50:16;;;;;;;13.07;7.53;;;10.50;83.70;;;;;;5071882;28;20104;-80
2021/09/21 03:52:41;;;;;;;9.82;7.03;;;10.50;83.80;;;;;;5055065;28;20060;-81
2021/09/21 03:55:11;;;;;;;11.40;7.65;;;10.40;83.70;;;;;;5053855;28;20021;-79
2021/09/21 03:57:37;;;;;;;12.02;7.78;;;10.40;83.80;;;;;;5062685;28;20029;-80
2021/09/21 04:00:04;;;;;;;11.65;7.70;;;10.40;83.90;;;;;;5056969;28;20683;-80
2021/09/21 04:02:29;;;;;;;12.68;7.65;;;10.40;84.10;;;;;;5052091;28;20118;-79
2021/09/21 04:04:55;;;;;;;12.40;7.75;;;10.40;84.40;;;;;;5052752;28;20032;-79
2021/09/21 04:07:21;;;;;;;14.63;8.35;;;10.40;84.80;;;;;;5052421;28;20025;-81
2021/09/21 04:09:46;;;;;;;14.32;8.10;;;10.40;84.70;;;;;;5051968;28;20541;-80
2021/09/21 04:12:12;;;;;;;13.30;8.07;;;10.40;84.70;;;;;;5052993;28;20532;-80
2021/09/21 04:14:37;;;;;;;11.60;7.88;;;10.30;84.90;;;;;;5052087;28;20424;-80
2021/09/21 04:17:03;;;;;;;12.38;8.00;;;10.30;85.20;;;;;;5052189;28;20029;-80
2021/09/21 04:19:29;;;;;;;12.73;7.60;;;10.30;85.30;;;;;;5052156;28;20411;-80
2021/09/21 04:21:54;;;;;;;13.50;8.23;;;10.40;85.20;;;;;;5051986;28;20024;-80
2021/09/21 04:24:20;;;;;;;12.95;7.93;;;10.40;85.30;;;;;;5052264;28;20378;-80
2021/09/21 04:26:45;;;;;;;11.07;7.10;;;10.40;85.20;;;;;;5052446;28;20033;-79
2021/09/21 04:29:11;;;;;;;13.50;8.45;;;10.30;85.00;;;;;;5051363;28;20397;-79
2021/09/21 04:31:43;;;;;;;13.10;8.15;;;10.30;84.90;;;;;;5048743;28;20029;-80
2021/09/21 04:34:13;;;;;;;11.70;7.43;;;10.30;85.30;;;;;;5047695;28;20012;-78
2021/09/21 04:36:39;;;;;;;11.75;7.32;;;10.30;85.70;;;;;;5055998;28;20017;-80
2021/09/21 04:39:05;;;;;;;16.58;7.68;;;10.40;86.00;;;;;;5052854;28;20033;-80
2021/09/21 04:41:31;;;;;;;11.00;7.45;;;10.40;86.20;;;;;;5052776;28;20531;-79
2021/09/21 04:43:59;;;;;;;14.20;7.90;;;10.40;86.50;;;;;;5052156;28;20025;-80
2021/09/21 04:46:25;;;;;;;11.40;7.35;;;10.50;86.50;;;;;;5053752;28;20048;-80
2021/09/21 04:48:51;;;;;;;15.45;7.55;;;10.60;86.40;;;;;;5052832;28;20036;-80
2021/09/21 04:51:16;;;;;;;10.90;6.97;;;10.70;86.40;;;;;;5052362;28;20376;-80
2021/09/21 04:53:42;;;;;;;12.82;7.22;;;10.70;86.20;;;;;;5053282;28;20017;-81
2021/09/21 04:56:08;;;;;;;14.57;8.60;;;10.80;86.20;;;;;;5058641;28;20021;-79
2021/09/21 04:58:33;;;;;;;12.23;7.28;;;10.90;86.10;;;;;;5067371;28;20032;-80
2021/09/21 05:00:59;;;;;;;13.52;7.00;;;10.90;85.90;;;;;;5063338;28;20016;-79
2021/09/21 05:03:25;;;;;;;14.60;7.13;;;11.00;86.00;;;;;;5056852;28;20025;-81
2021/09/21 05:05:50;;;;;;;16.88;8.07;;;11.00;85.90;;;;;;5056267;28;20028;-80
2021/09/21 05:08:16;;;;;;;11.23;6.93;;;11.10;85.60;;;;;;5054984;28;20025;-79
2021/09/21 05:10:42;;;;;;;15.13;8.23;;;11.10;85.40;;;;;;5055418;28;20021;-80
2021/09/21 05:13:07;;;;;;;17.23;7.80;;;11.20;85.10;;;;;;5064572;28;20078;-79
2021/09/21 05:15:33;;;;;;;13.60;7.47;;;11.20;84.80;;;;;;5055826;28;20044;-81
2021/09/21 05:17:59;;;;;;;13.40;8.25;;;11.30;85.00;;;;;;5055565;28;20044;-80
2021/09/21 05:20:24;;;;;;;12.32;8.35;;;11.30;84.70;;;;;;5055528;28;20489;-80
2021/09/21 05:22:54;;;;;;;12.20;8.00;;;11.30;84.50;;;;;;5055174;28;20017;-79
2021/09/21 05:25:20;;;;;;;14.10;8.30;;;11.50;84.20;;;;;;5055000;28;20024;-81
2021/09/21 05:27:46;;;;;;;12.57;7.93;;;11.40;84.10;;;;;;5055085;28;20024;-80
2021/09/21 05:30:12;;;;;;;14.35;8.10;;;11.50;84.10;;;;;;5054511;28;20040;-80
2021/09/21 05:32:38;;;;;;;16.38;8.35;;;11.50;84.20;;;;;;5054981;28;20075;-80
2021/09/21 05:35:05;;;;;;;15.02;8.82;;;11.50;84.30;;;;;;5055147;28;20025;-80
2021/09/21 05:37:31;;;;;;;15.40;8.52;;;11.60;84.50;;;;;;5059803;28;20021;-80
2021/09/21 05:39:57;;;;;;;12.30;7.63;;;11.60;84.30;;;;;;5055978;28;20538;-80
2021/09/21 05:42:23;;;;;;;15.50;7.80;;;11.60;84.00;;;;;;5070801;28;20025;-78
2021/09/21 05:44:49;;;;;;;12.73;7.78;;;11.70;84.20;;;;;;5056259;28;20053;-80
2021/09/21 05:47:15;;;;;;;15.55;8.18;;;11.80;84.10;;;;;;5055063;28;20044;-79
2021/09/21 05:49:41;;;;;;;16.80;8.25;;;11.80;84.30;;;;;;5068286;28;20067;-80
2021/09/21 05:52:06;;;;;;;14.38;7.78;;;11.70;84.20;;;;;;5058318;28;20029;-80
2021/09/21 05:54:32;;;;;;;14.23;8.75;;;11.80;84.40;;;;;;5074100;28;20021;-81
2021/09/21 05:56:59;;;;;;;16.45;8.15;;;11.80;83.50;;;;;;5055042;28;20021;-80
2021/09/21 05:59:24;;;;;;;14.20;7.88;;;11.90;83.50;;;;;;5055043;28;20386;-80
2021/09/21 06:01:50;;;;;;;12.93;8.52;;;11.90;83.80;;;;;;5055622;28;20017;-80
2021/09/21 06:04:16;;;;;;;11.55;8.15;;;11.90;83.80;;;;;;5054394;28;20029;-81
2021/09/21 06:06:42;;;;;;;12.65;8.07;;;12.00;83.50;;;;;;5053649;28;20028;-79
2021/09/21 06:09:07;;;;;;;11.48;8.18;;;12.00;83.40;;;;;;5054139;28;20389;-82
2021/09/21 06:11:33;;;;;;;14.05;8.18;;;12.10;83.40;;;;;;5054328;28;20021;-81
2021/09/21 06:14:01;;;;;;;13.57;8.25;;;12.10;83.30;;;;;;5053184;28;20029;-80
2021/09/21 06:16:27;;;;;;;14.32;7.63;;;12.10;83.50;;;;;;5054504;28;20474;-81
2021/09/21 06:18:53;;;;;;;15.85;8.00;;;12.20;83.10;;;;;;5054447;28;20103;-79
2021/09/21 06:21:19;;;;;;;17.83;8.98;;;12.20;83.00;;;;;;5053824;28;20017;-80
2021/09/21 06:23:45;;;;;;;15.30;8.38;;;12.30;82.90;;;;;;5055040;28;20059;-80
2021/09/21 06:26:11;;;;;;;14.63;8.55;;;12.40;83.50;;;;;;5060813;28;20029;-81
2021/09/21 06:28:36;;;;;;;13.73;7.38;;;12.40;83.40;;;;;;5053965;28;20060;-79
2021/09/21 06:31:02;;;;;;;13.35;7.65;;;12.50;82.80;;;;;;5053318;28;20088;-80
2021/09/21 06:33:28;;;;;;;13.63;8.00;;;12.50;82.30;;;;;;5053528;28;20021;-80
2021/09/21 06:35:53;;;;;;;18.13;8.07;;;12.60;82.70;;;;;;5054489;28;20033;-81
2021/09/21 06:38:19;;;;;;;15.32;7.65;;;12.70;83.00;;;;;;5053612;28;20021;-80
2021/09/21 06:40:45;;;;;;;11.73;7.18;;;12.80;82.90;;;;;;5053439;28;20511;-81
2021/09/21 06:43:11;;;;;;;13.18;8.50;;;12.80;82.60;;;;;;5054921;28;20062;-82
2021/09/21 06:45:36;;;;;;;12.45;7.55;;;12.80;82.30;;;;;;5054349;28;20025;-82
2021/09/21 06:48:02;;;;;;;13.25;8.15;;;12.90;83.30;;;;;;5063151;28;20080;-82
2021/09/21 06:50:28;;;;;;;15.45;7.90;;;12.90;83.30;;;;;;5076543;28;20021;-82
2021/09/21 06:52:53;;;;;;;12.80;7.93;;;13.00;82.40;;;;;;5071850;28;20032;-83
2021/09/21 06:55:19;;;;;;;12.98;7.28;;;13.10;82.00;;;;;;5055071;28;20112;-82
2021/09/21 06:57:53;;;;;;;13.55;7.65;;;13.10;82.40;;;;;;5054743;28;20183;-84
2021/09/21 07:00:20;;;;;;;13.38;7.57;;;13.20;81.60;;;;;;5054157;28;20109;-82
2021/09/21 07:02:50;;;;;;;10.77;6.78;;;13.30;81.20;;;;;;5063192;28;20032;-81
2021/09/21 07:05:16;;;;;;;12.55;7.43;;;13.30;80.60;;;;;;5054628;28;20025;-84
2021/09/21 07:07:47;;;;;;;12.77;8.52;;;13.30;80.50;;;;;;5054322;28;20477;-82
2021/09/21 07:10:14;;;;;;;12.13;7.55;;;13.40;81.00;;;;;;5054062;28;20136;-83
2021/09/21 07:12:41;;;;;;;13.85;7.97;;;13.60;81.40;;;;;;5054382;28;20382;-83
2021/09/21 07:15:08;;;;;;;13.55;7.68;;;13.70;80.20;;;;;;5053749;28;20380;-82
2021/09/21 07:17:34;;;;;;;13.27;7.93;;;13.80;79.70;;;;;;5053214;28;20025;-81
2021/09/21 07:20:00;;;;;;;10.98;7.35;;;13.90;79.20;;;;;;5057101;28;20056;-83
2021/09/21 07:22:28;;;;;;;14.25;7.53;;;13.90;79.10;;;;;;5063829;28;20032;-82
2021/09/21 07:24:54;;;;;;;14.57;7.68;;;14.00;78.90;;;;;;5053434;28;20091;-82
2021/09/21 07:27:19;;;;;;;12.35;6.82;;;14.10;77.60;;;;;;5052983;28;20025;-83
2021/09/21 07:29:45;;;;;;;11.13;6.93;;;14.20;77.80;;;;;;5052874;28;20076;-84
2021/09/21 07:32:11;;;;;;;12.10;6.68;;;14.20;78.10;;;;;;5054526;28;20036;-82
2021/09/21 07:34:36;;;;;;;14.77;7.82;;;14.20;78.90;;;;;;5052953;28;20066;-82
2021/09/21 07:37:03;;;;;;;10.23;6.78;;;14.30;78.50;;;;;;5053286;28;20051;-83
2021/09/21 07:39:29;;;;;;;11.52;6.68;;;14.40;78.50;;;;;;5062082;28;20037;-84
2021/09/21 07:41:55;;;;;;;16.02;7.25;;;14.40;78.60;;;;;;5057091;28;20025;-81
2021/09/21 07:44:21;;;;;;;13.82;7.93;;;14.60;78.60;;;;;;5053811;28;20021;-83
2021/09/21 07:46:47;;;;;;;13.15;7.15;;;14.80;78.50;;;;;;5053473;28;20021;-83
2021/09/21 07:49:13;;;;;;;15.45;6.85;;;15.00;78.10;;;;;;5053304;28;20032;-83
2021/09/21 07:51:39;;;;;;;12.27;5.60;;;15.20;75.00;;;;;;5053665;28;20033;-82
2021/09/21 07:54:07;;;;;;;12.00;5.63;;;15.40;72.50;;;;;;5053683;28;20033;-82
2021/09/21 07:56:32;;;;;;;8.80;4.90;;;15.60;70.80;;;;;;5064163;28;20119;-82
2021/09/21 07:58:58;;;;;;;10.18;4.80;;;15.80;70.60;;;;;;5065881;28;20354;-82
2021/09/21 08:01:24;;;;;;;8.10;4.13;;;16.00;69.40;;;;;;5057956;28;20048;-84
2021/09/21 08:03:49;;;;;;;7.30;4.07;;;16.20;68.60;;;;;;5053497;28;20599;-82
2021/09/21 08:06:15;;;;;;;7.38;4.25;;;16.40;67.20;;;;;;5052517;28;20119;-82
2021/09/21 08:08:42;;;;;;;7.40;3.75;;;16.60;65.90;;;;;;5052518;28;20457;-83
2021/09/21 08:11:10;;;;;;;8.80;4.32;;;16.80;63.80;;;;;;5052242;28;20032;-82
2021/09/21 08:13:36;;;;;;;8.05;3.67;;;16.90;62.20;;;;;;5052232;28;20071;-83
2021/09/21 08:16:02;;;;;;;7.75;3.78;;;17.10;62.10;;;;;;5061744;28;20021;-81
2021/09/21 08:18:28;;;;;;;6.78;2.90;;;17.30;62.60;;;;;;5056735;28;20376;-84
2021/09/21 08:20:53;;;;;;;8.05;4.25;;;17.50;60.80;;;;;;5053730;28;20211;-83
2021/09/21 08:23:19;;;;;;;7.32;3.40;;;17.60;59.80;;;;;;5052792;28;20108;-83
2021/09/21 08:25:45;;;;;;;8.77;3.55;;;17.80;60.10;;;;;;5053611;28;20028;-82
2021/09/21 08:28:11;;;;;;;8.07;4.00;;;18.00;60.00;;;;;;5052313;28;20021;-83
2021/09/21 08:30:36;;;;;;;7.32;3.08;;;18.10;58.80;;;;;;5053941;28;20151;-82
2021/09/21 08:33:03;;;;;;;7.43;3.17;;;18.20;58.90;;;;;;5057689;28;20028;-83
2021/09/21 08:35:29;;;;;;;6.38;3.20;;;18.30;57.80;;;;;;5057482;28;20037;-83
2021/09/21 08:37:55;;;;;;;6.03;3.28;;;18.30;56.50;;;;;;5061511;28;20029;-83
2021/09/21 08:40:21;;;;;;;7.35;3.08;;;18.40;57.40;;;;;;5079078;28;20009;-83
2021/09/21 08:42:47;;;;;;;6.57;3.30;;;18.50;57.30;;;;;;5078584;28;20040;-80
2021/09/21 08:45:13;;;;;;;7.20;4.00;;;18.60;58.80;;;;;;5069318;28;20021;-83
2021/09/21 08:47:39;;;;;;;7.53;4.15;;;18.70;58.60;;;;;;5058121;28;20108;-82
2021/09/21 08:50:07;;;;;;;6.90;4.05;;;18.70;57.50;;;;;;5057046;28;20052;-83
2021/09/21 08:52:33;;;;;;;5.07;2.42;;;18.80;59.20;;;;;;5063035;28;20033;-83
2021/09/21 08:55:00;;;;;;;4.88;1.95;;;18.90;63.80;;;;;;5060100;28;20545;-82
2021/09/21 08:57:28;;;;;;;3.80;2.00;;;19.10;66.30;;;;;;5057041;28;20029;-82
2021/09/21 08:59:55;;;;;;;5.18;2.90;;;19.20;67.00;;;;;;5065975;28;20032;-82
2021/09/21 09:02:23;;;;;;;6.50;2.75;;;19.30;62.50;;;;;;5056256;28;20358;-82
2021/09/21 09:04:58;;;;;;;9.27;3.15;;;19.30;60.60;;;;;;5055916;28;20021;-82
2021/09/21 09:07:27;;;;;;;6.25;2.92;;;19.30;59.00;;;;;;5055720;28;20071;-81
2021/09/21 09:10:01;;;;;;;5.35;2.78;;;19.30;58.40;;;;;;5056103;28;20079;-84
2021/09/21 09:12:33;;;;;;;6.68;3.30;;;19.30;58.00;;;;;;5055757;28;20028;-82
2021/09/21 09:15:08;;;;;;;8.43;2.20;;;19.30;57.10;;;;;;5055983;28;20021;-80
2021/09/21 09:17:34;;;;;;;7.75;2.90;;;19.40;55.80;;;;;;5055310;28;20020;-82
2021/09/21 09:20:00;;;;;;;4.43;2.40;;;19.50;54.70;;;;;;5057224;28;20428;-82
2021/09/21 09:22:27;;;;;;;4.75;2.40;;;19.50;52.30;;;;;;5056279;28;20025;-82
2021/09/21 09:25:00;;;;;;;4.78;2.58;;;19.50;54.50;;;;;;5056586;28;20474;-81
2021/09/21 09:27:46;;;;;;;6.32;2.47;;;19.70;54.20;;;;;;5056080;28;20120;-81
2021/09/21 09:30:19;;;;;;;4.50;2.53;;;19.90;54.20;;;;;;5064615;28;20460;-82
2021/09/21 09:33:03;;;;;;;4.38;2.58;;;20.20;53.70;;;;;;5056876;28;20017;-82
2021/09/21 09:35:34;;;;;;;7.82;2.70;;;20.30;53.20;;;;;;5055592;28;20032;-82
2021/09/21 09:38:15;;;;;;;5.80;2.15;;;20.40;52.30;;;;;;5056221;28;20021;-82
2021/09/21 09:40:55;;;;;;;5.72;2.53;;;20.60;53.10;;;;;;5069732;28;20030;-81
2021/09/21 09:43:24;;;;;;;5.95;2.67;;;20.70;54.60;;;;;;5075979;28;20017;-81
2021/09/21 09:45:53;;;;;;;5.75;2.40;;;20.80;51.60;;;;;;5078683;28;20017;-81
2021/09/21 09:48:20;;;;;;;5.00;2.80;;;20.80;50.60;;;;;;5073517;28;20021;-81
2021/09/21 09:50:48;;;;;;;5.72;2.70;;;21.00;51.50;;;;;;5056074;28;20102;-81
2021/09/21 09:53:19;;;;;;;4.88;2.72;;;21.10;51.10;;;;;;5055380;28;20111;-81
2021/09/21 09:55:52;;;;;;;8.00;2.97;;;21.10;51.40;;;;;;5058562;28;20029;-81
2021/09/21 09:58:19;;;;;;;6.22;3.08;;;21.00;48.90;;;;;;5068189;28;20005;-80
2021/09/21 10:00:46;;;;;;;5.95;3.00;;;20.90;49.10;;;;;;5063781;28;20108;-81
2021/09/21 10:03:12;;;;;;;4.47;2.20;;;20.90;48.80;;;;;;5055441;28;20032;-81
2021/09/21 10:05:40;;;;;;;5.72;2.42;;;20.90;49.70;;;;;;5056647;28;20025;-80
2021/09/21 10:08:09;;;;;;;4.20;2.20;;;21.00;50.60;;;;;;5055692;28;20025;-81
2021/09/21 10:10:37;;;;;;;4.93;1.92;;;21.00;48.70;;;;;;5054339;28;20111;-81
2021/09/21 10:13:13;;;;;;;7.13;2.45;;;21.20;51.80;;;;;;5054196;28;20043;-80
2021/09/21 10:15:41;;;;;;;4.75;2.30;;;21.30;47.70;;;;;;5054571;28;20025;-80
2021/09/21 10:18:15;;;;;;;9.45;2.70;;;21.30;47.60;;;;;;5055261;28;20033;-80
2021/09/21 10:20:41;;;;;;;5.35;2.50;;;21.40;48.70;;;;;;5054583;28;20021;-80
2021/09/21 10:23:10;;;;;;;6.00;1.75;;;21.40;48.20;;;;;;5055705;28;20104;-81
2021/09/21 10:25:41;;;;;;;4.78;2.35;;;21.40;49.40;;;;;;5054080;28;20017;-82
2021/09/21 10:28:16;;;;;;;4.78;2.28;;;21.40;48.20;;;;;;5055531;28;20025;-81
2021/09/21 10:30:53;;;;;;;4.00;2.15;;;21.40;48.70;;;;;;5076412;28;20041;-82
2021/09/21 10:33:21;;;;;;;4.05;1.95;;;21.30;48.60;;;;;;5075809;28;20012;-81
2021/09/21 10:35:49;;;;;;;3.97;1.95;;;21.40;47.10;;;;;;5059257;28;20114;-80
2021/09/21 10:38:15;;;;;;;5.25;2.22;;;21.60;44.90;;;;;;5054722;28;20055;-80
2021/09/21 10:40:48;;;;;;;7.50;2.55;;;21.80;46.60;;;;;;5054961;28;20033;-80
2021/09/21 10:43:35;;;;;;;4.18;1.80;;;22.00;44.40;;;;;;5062807;28;20201;-80
2021/09/21 10:46:16;;;;;;;6.13;2.58;;;22.10;44.00;;;;;;5053844;28;20057;-80
2021/09/21 10:48:44;;;;;;;5.05;2.10;;;22.20;44.40;;;;;;5054313;28;20470;-80
2021/09/21 10:51:11;;;;;;;5.05;2.30;;;22.30;44.40;;;;;;5054196;28;20032;-79
2021/09/21 10:53:38;;;;;;;4.20;2.20;;;22.40;43.10;;;;;;5053636;28;20104;-80
2021/09/21 10:56:15;;;;;;;4.53;2.08;;;22.40;45.30;;;;;;5053398;28;20013;-81
2021/09/21 10:58:52;;;;;;;5.53;2.78;;;22.40;57.20;;;;;;5053696;28;20110;-81
2021/09/21 11:01:17;;;;;;;5.25;2.63;;;22.30;45.80;;;;;;5054352;28;20024;-81
2021/09/21 11:03:43;;;;;;;4.78;2.78;;;22.20;49.60;;;;;;5054127;28;20116;-80
2021/09/21 11:06:09;;;;;;;4.80;2.30;;;22.20;45.70;;;;;;5054388;28;20021;-80
2021/09/21 11:08:35;;;;;;;2.47;1.48;;;22.30;51.30;;;;;;5053019;28;20090;-80
2021/09/21 11:11:05;;;;;;;4.43;2.13;;;22.50;59.30;;;;;;5053782;28;20035;-81
2021/09/21 11:13:33;;;;;;;3.92;2.20;;;22.40;58.60;;;;;;5053953;28;20055;-81
2021/09/21 11:16:01;;;;;;;3.78;2.25;;;22.40;49.90;;;;;;5053758;28;20112;-81
2021/09/21 11:18:27;;;;;;;5.72;2.72;;;22.50;47.90;;;;;;5058917;28;20021;-80
2021/09/21 11:20:55;;;;;;;5.13;2.00;;;22.80;46.70;;;;;;5057586;28;20029;-80
2021/09/21 11:23:26;;;;;;;5.53;2.35;;;23.00;50.60;;;;;;5052568;28;20021;-80
2021/09/21 11:25:54;;;;;;;3.42;1.65;;;23.20;47.40;;;;;;5053822;28;20032;-80
2021/09/21 11:28:20;;;;;;;5.93;2.40;;;23.30;48.50;;;;;;5054290;28;20033;-79
2021/09/21 11:30:46;;;;;;;3.88;2.25;;;23.30;45.90;;;;;;5065973;28;20051;-79
2021/09/21 11:33:21;;;;;;;3.90;1.70;;;23.30;43.30;;;;;;5072086;28;20051;-80
2021/09/21 11:35:59;;;;;;;6.80;2.72;;;23.30;44.80;;;;;;5074496;28;20017;-80
2021/09/21 11:38:28;;;;;;;4.95;2.30;;;23.40;44.10;;;;;;5066252;28;20021;-78
2021/09/21 11:40:54;;;;;;;3.85;1.60;;;23.50;43.10;;;;;;5054243;28;20509;-80
2021/09/21 11:43:20;;;;;;;4.70;2.05;;;23.50;42.90;;;;;;5052270;28;20020;-80
2021/09/21 11:45:48;;;;;;;6.10;1.90;;;23.50;43.00;;;;;;5052778;28;20029;-81
2021/09/21 11:48:15;;;;;;;3.63;1.58;;;23.60;53.50;;;;;;5053666;28;20320;-80
2021/09/21 11:50:42;;;;;;;4.75;2.15;;;23.40;52.20;;;;;;5054789;28;20060;-79
2021/09/21 11:53:11;;;;;;;4.97;2.33;;;23.40;50.00;;;;;;5055305;28;20029;-79
2021/09/21 11:55:39;;;;;;;4.93;2.10;;;23.30;47.90;;;;;;5063005;28;20028;-80
2021/09/21 11:58:06;;;;;;;3.33;1.83;;;23.30;50.50;;;;;;5059404;28;20017;-79
2021/09/21 12:00:40;;;;;;;3.70;1.90;;;23.30;50.50;;;;;;5061651;28;20096;-79
2021/09/21 12:03:09;;;;;;;4.15;2.03;;;23.40;46.80;;;;;;5055296;28;20021;-80
2021/09/21 12:05:37;;;;;;;3.85;2.15;;;23.40;54.10;;;;;;5053991;28;20033;-81
2021/09/21 12:08:06;;;;;;;4.60;2.42;;;23.50;52.10;;;;;;5053253;28;20064;-80
2021/09/21 12:10:32;;;;;;;6.85;3.33;;;23.50;50.40;;;;;;5058154;28;20029;-82
2021/09/21 12:13:01;;;;;;;5.13;2.20;;;23.50;46.90;;;;;;5053428;28;20028;-79
2021/09/21 12:15:29;;;;;;;5.97;2.05;;;23.50;52.20;;;;;;5053654;28;20021;-80
2021/09/21 12:17:55;;;;;;;2.58;1.48;;;23.60;52.50;;;;;;5061775;28;20074;-79
2021/09/21 12:20:28;;;;;;;4.88;2.40;;;23.50;56.80;;;;;;5070578;28;20029;-78
2021/09/21 12:22:55;;;;;;;4.45;2.50;;;23.40;51.10;;;;;;5072597;28;20026;-80
2021/09/21 12:25:23;;;;;;;3.42;1.90;;;23.40;49.20;;;;;;5063301;28;20029;-79
2021/09/21 12:27:54;;;;;;;4.85;2.13;;;23.50;53.30;;;;;;5053058;28;20017;-79
2021/09/21 12:30:23;;;;;;;4.97;2.10;;;23.50;48.70;;;;;;5051773;28;20076;-79
2021/09/21 12:33:00;;;;;;;4.07;1.83;;;23.50;49.50;;;;;;5052634;28;20377;-80
2021/09/21 12:35:34;;;;;;;4.97;2.42;;;23.40;54.60;;;;;;5052448;28;20098;-80
2021/09/21 12:38:05;;;;;;;3.80;2.15;;;23.40;52.60;;;;;;5052414;28;20112;-80
2021/09/21 12:40:31;;;;;;;4.05;2.05;;;23.40;53.80;;;;;;5051414;28;20036;-80
2021/09/21 12:43:02;;;;;;;5.25;2.30;;;23.30;56.10;;;;;;5051571;28;20025;-80
2021/09/21 12:45:28;;;;;;;5.05;2.50;;;23.30;56.40;;;;;;5052074;28;20099;-79
2021/09/21 12:47:54;;;;;;;6.25;3.55;;;23.30;56.70;;;;;;5052417;28;20021;-79
2021/09/21 12:50:23;;;;;;;6.00;2.50;;;23.20;51.00;;;;;;5051985;28;20029;-79
2021/09/21 12:52:54;;;;;;;6.00;2.00;;;23.00;50.60;;;;;;5051444;28;20028;-80
2021/09/21 12:55:31;;;;;;;5.43;2.60;;;22.90;52.30;;;;;;5051960;28;20029;-79